Weather History for K05U - May, 2013

Change the Weather History Date:

Saturday, May 25, 2013

  Actual Average Record
Temperature  
Mean Temperature 54 °F -  
Max Temperature 77 °F - - ()
Min Temperature 30 °F - - ()
Degree Days  
Heating Degree Days 12    
Growing Degree Days 4 (Base 50)    
Moisture  
Dew Point 13 °F    
Average Humidity 20    
Maximum Humidity 41    
Minimum Humidity 9    
Precipitation  
Precipitation 0.00 in - - ()
Sea Level Pressure  
Sea Level Pressure 29.97 in    
Wind  
Wind Speed 4 mph (NE)    
Max Wind Speed 17 mph    
Max Gust Speed 23 mph    
Visibility 10 miles    
Events      
T = Trace of Precipitation, MM = Missing Value Source: NWS Daily Summary

Daily Weather History Graph

Daily Weather History Graph

Search for Another Location

Airport or City:

Trip Planner

Search our weather history database for the weather conditions in past years. The results will help you decide how hot, cold, wet, or windy it might be!

Date:

Astronomy

May. 25, 2013 Rise Set
Actual Time 5:21 AM PDT 8:00 PM PDT
Civil Twilight 4:50 AM PDT 8:31 PM PDT
Nautical Twilight 4:11 AM PDT 9:11 PM PDT
Astronomical Twilight 3:27 AM PDT 9:55 PM PDT
Moon 8:53 PM PDT (5/25) 5:53 AM PDT (5/25)
Length of Visible Light 15h 41m
Length of Day
14h 38m
Waxing Gibbous, 99% of the Moon is Illuminated
May 25
Waxing Gibbous
May 31
Last Quarter
Jun 8
New
Jun 16
First Quarter
Jun 23
Full

Hourly Weather History & Observations

Time (PDT) Temp. Windchill Dew Point Humidity Pressure Visibility Wind Dir Wind Speed Gust Speed Precip Events Conditions
12:10 AM 39.2 °F - 14.0 °F 36% 29.96 in 10.0 mi Calm Calm - N/A   Clear
12:30 AM 37.4 °F - 10.4 °F 33% 29.96 in 10.0 mi Calm Calm - N/A   Clear
12:50 AM 41.0 °F 38.0 °F 8.6 °F 26% 29.95 in 10.0 mi South 4.6 mph - N/A   Clear
1:10 AM 37.4 °F 33.8 °F 8.6 °F 30% 29.96 in 10.0 mi West 4.6 mph - N/A   Clear
1:30 AM 35.6 °F 30.7 °F 14.0 °F 41% 29.95 in 10.0 mi South 5.8 mph - N/A   Clear
1:50 AM 39.2 °F 34.2 °F 10.4 °F 31% 29.95 in 10.0 mi SSW 6.9 mph - N/A   Clear
2:10 AM 41.0 °F 36.4 °F 6.8 °F 24% 29.95 in 10.0 mi SW 6.9 mph - N/A   Clear
2:30 AM 39.2 °F 34.2 °F 8.6 °F 28% 29.95 in 10.0 mi SSW 6.9 mph - N/A   Clear
2:50 AM 39.2 °F 33.6 °F 8.6 °F 28% 29.95 in 10.0 mi SSW 8.1 mph - N/A   Clear
3:10 AM 39.2 °F 32.5 °F 5.0 °F 24% 29.95 in 10.0 mi SW 10.4 mph - N/A   Clear
3:30 AM 41.0 °F 35.8 °F 5.0 °F 23% 29.96 in 10.0 mi SW 8.1 mph - N/A   Clear
3:50 AM 39.2 °F - 5.0 °F 24% 29.96 in 10.0 mi Calm Calm - N/A   Clear
4:10 AM 41.0 °F 37.1 °F 6.8 °F 24% 29.96 in 10.0 mi SSW 5.8 mph - N/A   Clear
4:30 AM 41.0 °F 35.8 °F 6.8 °F 24% 29.96 in 10.0 mi SSW 8.1 mph - N/A   Clear
4:50 AM 37.4 °F 32.1 °F 6.8 °F 28% 29.97 in 10.0 mi SSW 6.9 mph - N/A   Clear
5:10 AM 37.4 °F - 8.6 °F 30% 29.98 in 10.0 mi Calm Calm - N/A   Clear
5:30 AM 32.0 °F - 6.8 °F 35% 29.98 in 10.0 mi Calm Calm - N/A   Clear
5:50 AM 30.2 °F - 5.0 °F 34% 29.99 in 10.0 mi Calm Calm - N/A   Clear
6:10 AM 37.4 °F - 5.0 °F 26% 30.00 in 10.0 mi Calm Calm - N/A   Clear
6:30 AM 41.0 °F 38.0 °F 14.0 °F 33% 30.00 in 10.0 mi ESE 4.6 mph - N/A   Clear
6:50 AM 44.6 °F 42.2 °F 8.6 °F 23% 30.00 in 10.0 mi South 4.6 mph - N/A   Clear
7:10 AM 48.2 °F - 12.2 °F 24% 30.01 in 10.0 mi Calm Calm - N/A   Clear
7:30 AM 50.0 °F - 10.4 °F 20% 30.01 in 10.0 mi Calm Calm - N/A   Clear
7:50 AM 55.4 °F - 10.4 °F 17% 30.01 in 10.0 mi Calm Calm - N/A   Clear
8:10 AM 57.2 °F - 8.6 °F 14% 30.01 in 10.0 mi North 3.5 mph - N/A   Clear
8:30 AM 59.0 °F - 8.6 °F 14% 30.01 in 10.0 mi Calm Calm - N/A   Clear
8:50 AM 60.8 °F - 10.4 °F 14% 30.02 in 10.0 mi North 5.8 mph - N/A   Clear
9:10 AM 60.8 °F - 10.4 °F 14% 30.01 in 10.0 mi NNE 8.1 mph - N/A   Clear
9:30 AM 62.6 °F - 10.4 °F 13% 30.01 in 10.0 mi NE 8.1 mph - N/A   Clear
9:50 AM 62.6 °F - 10.4 °F 13% 30.01 in 10.0 mi NE 8.1 mph - N/A   Clear
10:10 AM 64.4 °F - 12.2 °F 13% 30.01 in 10.0 mi NNE 8.1 mph - N/A   Clear
10:30 AM 64.4 °F - 8.6 °F 11% 30.01 in 10.0 mi ENE 4.6 mph - N/A   Clear
10:50 AM 66.2 °F - 10.4 °F 11% 30.01 in 10.0 mi ESE 4.6 mph - N/A   Clear
11:10 AM 66.2 °F - 10.4 °F 11% 30.01 in 10.0 mi Calm Calm - N/A   Clear
11:30 AM 68.0 °F - 10.4 °F 11% 30.00 in 10.0 mi NE 5.8 mph - N/A   Clear
11:50 AM 68.0 °F - 14.0 °F 12% 29.99 in 10.0 mi East 8.1 mph - N/A   Clear
12:10 PM 68.0 °F - 12.2 °F 12% 29.99 in 10.0 mi ENE 3.5 mph - N/A   Clear
12:30 PM 69.8 °F - 12.2 °F 11% 29.98 in 10.0 mi Calm Calm - N/A   Clear
12:50 PM 71.6 °F - 12.2 °F 10% 29.98 in 10.0 mi East 4.6 mph - N/A   Clear
1:10 PM 71.6 °F - 14.0 °F 11% 29.97 in 10.0 mi South 3.5 mph - N/A   Clear
1:30 PM 73.4 °F - 14.0 °F 10% 29.96 in 10.0 mi SSE 4.6 mph - N/A   Clear
1:50 PM 75.2 °F - 14.0 °F 10% 29.96 in 10.0 mi South 6.9 mph - N/A   Clear
2:10 PM 75.2 °F - 14.0 °F 10% 29.95 in 10.0 mi East 9.2 mph - N/A   Clear
2:30 PM 75.2 °F - 14.0 °F 10% 29.94 in 10.0 mi East 6.9 mph - N/A   Clear
2:50 PM 77.0 °F - 14.0 °F 9% 29.94 in 10.0 mi SE 4.6 mph - N/A   Clear
3:10 PM 77.0 °F - 15.8 °F 10% 29.93 in 10.0 mi NNW 8.1 mph - N/A   Clear
3:30 PM 77.0 °F - 14.0 °F 9% 29.92 in 10.0 mi NW 10.4 mph - N/A   Clear
3:50 PM 77.0 °F - 15.8 °F 10% 29.92 in 10.0 mi North 12.7 mph 19.6 mph N/A   Clear
4:10 PM 73.4 °F - 14.0 °F 10% 29.91 in 10.0 mi NNE 9.2 mph - N/A   Clear
4:30 PM 73.4 °F - 14.0 °F 10% 29.92 in 10.0 mi NW 4.6 mph - N/A   Clear
4:50 PM 75.2 °F - 12.2 °F 9% 29.92 in 10.0 mi West 17.3 mph 23.0 mph N/A   Clear
5:10 PM 73.4 °F - 12.2 °F 10% 29.92 in 10.0 mi West 11.5 mph 19.6 mph N/A   Clear
5:30 PM 71.6 °F - 12.2 °F 10% 29.93 in 10.0 mi NNW 11.5 mph 17.3 mph N/A   Clear
5:50 PM 69.8 °F - 19.4 °F 15% 29.93 in 10.0 mi North 8.1 mph - N/A   Clear
6:10 PM - - - N/A% 29.93 in 10.0 mi North 6.9 mph - N/A   Unknown
6:30 PM 68.0 °F - 21.2 °F 17% 29.93 in 10.0 mi NNE 6.9 mph - N/A   Clear
6:50 PM 66.2 °F - 19.4 °F 17% 29.94 in 10.0 mi North 5.8 mph - N/A   Clear
7:10 PM 66.2 °F - 21.2 °F 18% 29.94 in 10.0 mi NNE 4.6 mph - N/A   Clear
7:30 PM 66.2 °F - 23.0 °F 19% 29.95 in 10.0 mi NNW 4.6 mph - N/A   Clear
7:50 PM 64.4 °F - 19.4 °F 18% 29.94 in 10.0 mi NE 9.2 mph - N/A   Clear
8:10 PM 60.8 °F - 19.4 °F 20% 29.94 in 10.0 mi North 6.9 mph - N/A   Clear
8:30 PM 57.2 °F - 23.0 °F 27% 29.95 in 10.0 mi NNW 5.8 mph - N/A   Clear
8:50 PM 59.0 °F - 17.6 °F 20% 29.95 in 10.0 mi NE 5.8 mph - N/A   Clear
9:10 PM 55.4 °F - 19.4 °F 25% 29.96 in 10.0 mi Calm Calm - N/A   Clear
9:30 PM 53.6 °F - 19.4 °F 26% 29.96 in 10.0 mi East 4.6 mph - N/A   Clear
9:50 PM 55.4 °F - 17.6 °F 23% 29.97 in 10.0 mi Calm Calm - N/A   Clear
10:10 PM 50.0 °F - 17.6 °F 28% 29.98 in 10.0 mi Calm Calm - N/A   Clear
10:30 PM 50.0 °F - 19.4 °F 30% 29.99 in 10.0 mi Calm Calm - N/A   Clear
10:50 PM 50.0 °F - 17.6 °F 28% 29.99 in 10.0 mi Calm Calm - N/A   Clear
11:10 PM 48.2 °F - 19.4 °F 32% 30.00 in 10.0 mi WSW 3.5 mph - N/A   Clear
11:30 PM 48.2 °F - 21.2 °F 34% 30.00 in 10.0 mi South 3.5 mph - N/A   Clear
11:50 PM 46.4 °F - 21.2 °F 37% 30.00 in 10.0 mi Calm Calm - N/A   Clear